Time;durP1;ratioP1;P1;durP2;ratioP2;P2;SDS_P1;SDS_P2;PMS_P1;PMS_P2;Temp;Humidity;BMP_temperature;BMP_pressure;BME280_temperature;BME280_humidity;BME280_pressure;Samples;Min_cycle;Max_cycle;Signal;HPM_P1;HPM_P2
2021/12/14 00:00:47;;;;;;;465.50;271.73;;;3.00;1.00;;;;;;5035079;28;20061;-82
2021/12/14 00:03:19;;;;;;;426.55;245.68;;;3.00;1.00;;;;;;5034449;28;20052;-82
2021/12/14 00:05:47;;;;;;;427.77;249.13;;;3.00;1.00;;;;;;5026815;28;20057;-80
2021/12/14 00:08:16;;;;;;;429.02;248.52;;;3.00;1.00;;;;;;5029861;28;20041;-82
2021/12/14 00:11:09;;;;;;;393.35;232.00;;;2.90;1.00;;;;;;5038046;28;20488;-82
2021/12/14 00:13:51;;;;;;;416.25;240.57;;;2.90;1.00;;;;;;5034441;28;20054;-82
2021/12/14 00:16:19;;;;;;;392.23;233.38;;;2.90;99.90;;;;;;5018701;28;20038;-81
2021/12/14 00:18:48;;;;;;;380.92;219.10;;;2.90;99.90;;;;;;5022461;28;20561;-83
2021/12/14 00:21:21;;;;;;;357.23;207.90;;;3.00;99.90;;;;;;5019265;28;20436;-83
2021/12/14 00:24:07;;;;;;;296.60;168.55;;;3.00;51.70;;;;;;5017106;28;20060;-82
2021/12/14 00:26:36;;;;;;;299.10;168.20;;;3.00;1.00;;;;;;5017307;28;20148;-83
2021/12/14 00:29:05;;;;;;;295.35;169.15;;;3.00;1.00;;;;;;5017636;28;20382;-83
2021/12/14 00:31:35;;;;;;;259.88;151.82;;;3.00;1.00;;;;;;5017333;28;20104;-82
2021/12/14 00:34:06;;;;;;;273.67;156.45;;;2.90;1.00;;;;;;5017500;28;20042;-83
2021/12/14 00:36:35;;;;;;;307.50;173.55;;;2.90;1.00;;;;;;5023446;28;20042;-83
2021/12/14 00:39:05;;;;;;;255.88;150.75;;;3.00;99.90;;;;;;5047620;28;20049;-84
2021/12/14 00:41:36;;;;;;;261.35;148.50;;;3.00;29.70;;;;;;5019540;28;20050;-81
2021/12/14 00:44:06;;;;;;;248.30;140.35;;;3.00;1.00;;;;;;5015598;28;20493;-80
2021/12/14 00:46:35;;;;;;;251.02;146.38;;;3.10;1.00;;;;;;5017003;28;20049;-82
2021/12/14 00:49:05;;;;;;;256.25;143.45;;;3.10;1.00;;;;;;5017054;28;20046;-82
2021/12/14 00:51:34;;;;;;;233.48;132.57;;;3.10;1.00;;;;;;5016977;28;20500;-82
2021/12/14 00:54:05;;;;;;;218.73;127.50;;;3.00;1.00;;;;;;5016658;28;20560;-83
2021/12/14 00:56:33;;;;;;;239.55;132.38;;;3.00;1.00;;;;;;5020911;28;20480;-82
2021/12/14 00:59:01;;;;;;;243.43;138.07;;;3.00;1.00;;;;;;5025721;28;20046;-81
2021/12/14 01:01:32;;;;;;;245.32;140.93;;;3.00;1.00;;;;;;5017460;28;20046;-81
2021/12/14 01:04:02;;;;;;;253.57;141.90;;;3.00;1.00;;;;;;5021605;28;20171;-80
2021/12/14 01:06:35;;;;;;;241.25;136.30;;;3.00;1.00;;;;;;5025847;28;20109;-81
2021/12/14 01:09:05;;;;;;;260.73;148.25;;;2.90;1.00;;;;;;5021502;28;20048;-81
2021/12/14 01:11:37;;;;;;;267.40;147.15;;;2.90;99.90;;;;;;5014862;28;20515;-82
2021/12/14 01:14:11;;;;;;;262.88;147.25;;;3.00;99.90;;;;;;5020514;28;20042;-80
2021/12/14 01:16:51;;;;;;;255.77;141.50;;;3.10;99.90;;;;;;5026164;28;20045;-80
2021/12/14 01:19:26;;;;;;;242.52;137.25;;;3.10;99.90;;;;;;5014384;28;20532;-81
2021/12/14 01:22:31;;;;;;;267.38;148.95;;;3.00;9.00;;;;;;5014389;28;20045;-79
2021/12/14 01:25:06;;;;;;;242.35;138.65;;;3.10;99.90;;;;;;5014376;28;20382;-80
2021/12/14 01:27:40;;;;;;;247.05;139.15;;;3.20;99.90;;;;;;5015031;28;20057;-80
2021/12/14 01:30:14;;;;;;;348.30;201.30;;;3.20;99.90;;;;;;5014504;28;20592;-81
2021/12/14 01:32:46;;;;;;;274.55;158.65;;;3.20;72.10;;;;;;5014472;28;20045;-82
2021/12/14 01:35:15;;;;;;;315.73;185.63;;;3.30;85.30;;;;;;5013991;28;20064;-81
2021/12/14 01:37:59;;;;;;;508.45;301.30;;;3.30;91.40;;;;;;5014648;28;20046;-81
2021/12/14 01:43:22;;;;;;;278.23;159.10;;;3.30;1.00;;;;;;5014240;28;20053;-80
2021/12/14 01:45:51;;;;;;;223.57;130.55;;;3.30;1.00;;;;;;5014110;28;20132;-80
2021/12/14 01:48:21;;;;;;;220.95;125.90;;;3.20;1.00;;;;;;5013998;28;20054;-82
2021/12/14 01:51:07;;;;;;;185.90;112.00;;;3.20;1.00;;;;;;5014556;28;20104;-82
2021/12/14 01:54:03;;;;;;;228.65;128.73;;;3.20;1.00;;;;;;5005478;28;20461;-82
2021/12/14 01:56:33;;;;;;;227.43;129.65;;;3.20;1.00;;;;;;5023671;28;20499;-80
2021/12/14 01:59:12;;;;;;;242.05;137.98;;;3.20;1.00;;;;;;5024032;28;20504;-81
2021/12/14 02:01:47;;;;;;;205.07;119.03;;;3.30;1.00;;;;;;5022259;28;20046;-83
2021/12/14 02:04:18;;;;;;;226.43;126.57;;;3.20;1.00;;;;;;5014972;28;20049;-82
2021/12/14 02:06:53;;;;;;;230.68;129.93;;;3.20;1.00;;;;;;5015737;28;20081;-82
2021/12/14 02:09:25;;;;;;;202.43;115.60;;;3.20;1.00;;;;;;5015419;28;20528;-81
2021/12/14 02:11:55;;;;;;;201.98;117.68;;;3.20;1.00;;;;;;5015577;28;20054;-82
2021/12/14 02:14:24;;;;;;;186.48;111.93;;;3.20;1.00;;;;;;4997544;28;20046;-83
2021/12/14 02:16:55;;;;;;;222.25;134.55;;;3.20;1.00;;;;;;5007010;28;20050;-82
2021/12/14 02:19:22;;;;;;;217.77;127.30;;;3.20;1.00;;;;;;5038780;28;20085;-83
2021/12/14 02:21:54;;;;;;;222.20;130.45;;;3.20;1.00;;;;;;5020422;28;20474;-82
2021/12/14 02:24:23;;;;;;;217.77;128.30;;;3.30;1.00;;;;;;5015142;28;20050;-82
2021/12/14 02:26:57;;;;;;;219.55;130.20;;;3.30;1.00;;;;;;5014484;28;20440;-82
2021/12/14 02:29:29;;;;;;;211.23;125.30;;;3.40;1.00;;;;;;5016789;28;20581;-82
2021/12/14 02:32:04;;;;;;;172.23;102.07;;;3.40;1.00;;;;;;5019077;28;20073;-83
2021/12/14 02:34:37;;;;;;;168.70;102.60;;;3.40;99.90;;;;;;5016150;28;20052;-81
2021/12/14 02:37:06;;;;;;;180.57;104.93;;;3.30;99.90;;;;;;5007220;28;20042;-82
2021/12/14 02:39:49;;;;;;;170.80;100.00;;;3.30;99.90;;;;;;5012197;28;20038;-83
2021/12/14 02:42:25;;;;;;;165.32;99.07;;;3.20;99.90;;;;;;5026359;28;20061;-80
2021/12/14 02:44:55;;;;;;;182.05;106.57;;;3.10;1.00;;;;;;5012447;28;20046;-83
2021/12/14 02:47:24;;;;;;;214.13;124.75;;;3.10;1.00;;;;;;5012317;28;20054;-82
2021/12/14 02:49:52;;;;;;;225.30;128.48;;;3.10;1.00;;;;;;5011545;28;20050;-80
2021/12/14 02:52:31;;;;;;;267.65;151.63;;;3.20;1.00;;;;;;5010708;28;20070;-82
2021/12/14 02:55:01;;;;;;;261.27;152.13;;;3.10;1.00;;;;;;5015330;28;20046;-83
2021/12/14 02:57:35;;;;;;;257.45;146.15;;;3.10;1.00;;;;;;5015384;28;20046;-83
2021/12/14 03:00:07;;;;;;;272.02;154.70;;;3.10;1.00;;;;;;5013445;28;20050;-82
2021/12/14 03:02:35;;;;;;;260.17;152.32;;;3.10;1.00;;;;;;5029103;28;20046;-82
2021/12/14 03:05:08;;;;;;;247.43;142.32;;;3.10;1.00;;;;;;5029744;28;20056;-83
2021/12/14 03:07:43;;;;;;;254.45;146.50;;;3.10;1.00;;;;;;5030606;28;20069;-83
2021/12/14 03:10:34;;;;;;;246.95;142.88;;;3.10;1.00;;;;;;5032180;28;20056;-83
2021/12/14 03:13:05;;;;;;;248.07;146.93;;;3.20;1.00;;;;;;5030675;28;20045;-82
2021/12/14 03:15:41;;;;;;;253.90;146.68;;;3.20;1.00;;;;;;5028848;28;20058;-83
2021/12/14 03:18:11;;;;;;;298.33;168.57;;;3.20;1.00;;;;;;5028488;28;20149;-84
2021/12/14 03:20:44;;;;;;;290.63;169.18;;;3.20;1.00;;;;;;5025259;28;20132;-82
2021/12/14 03:23:17;;;;;;;280.80;160.43;;;3.20;1.00;;;;;;5027739;28;20065;-82
2021/12/14 03:25:48;;;;;;;272.55;156.15;;;3.20;1.00;;;;;;5023620;28;20044;-83
2021/12/14 03:28:19;;;;;;;299.13;175.95;;;3.20;1.00;;;;;;5036201;28;20049;-81
2021/12/14 03:30:56;;;;;;;284.52;163.38;;;3.20;1.00;;;;;;5037915;28;20144;-82
2021/12/14 03:33:28;;;;;;;293.48;168.88;;;3.10;1.00;;;;;;5025695;28;20069;-81
2021/12/14 03:35:59;;;;;;;279.10;160.73;;;3.20;1.00;;;;;;5037901;28;20061;-82
2021/12/14 03:38:35;;;;;;;290.35;168.60;;;3.20;1.00;;;;;;5037938;28;20209;-82
2021/12/14 03:41:06;;;;;;;282.33;160.65;;;3.40;1.00;;;;;;5030381;28;20077;-81
2021/12/14 03:43:35;;;;;;;279.00;161.30;;;3.30;1.00;;;;;;5029152;28;20050;-83
2021/12/14 03:46:07;;;;;;;293.38;172.43;;;3.30;1.00;;;;;;5027985;28;20042;-83
2021/12/14 03:48:37;;;;;;;283.88;158.70;;;3.30;1.00;;;;;;5028150;28;20053;-83
2021/12/14 03:51:05;;;;;;;268.23;157.52;;;3.30;1.00;;;;;;5031234;28;20050;-83
2021/12/14 03:53:35;;;;;;;265.98;152.02;;;3.30;1.00;;;;;;5032132;28;20099;-82
2021/12/14 03:56:06;;;;;;;278.02;159.00;;;3.30;1.00;;;;;;5032871;28;20049;-82
2021/12/14 03:58:36;;;;;;;274.30;153.18;;;3.30;1.00;;;;;;5037860;28;20074;-83
2021/12/14 04:01:08;;;;;;;250.98;142.77;;;3.30;1.00;;;;;;5030655;28;20041;-83
2021/12/14 04:03:43;;;;;;;255.98;143.50;;;3.30;1.00;;;;;;5029209;28;20069;-83
2021/12/14 04:06:31;;;;;;;235.70;136.05;;;3.40;1.00;;;;;;5018684;28;20084;-82
2021/12/14 04:09:00;;;;;;;226.52;131.38;;;3.40;1.00;;;;;;5017833;28;20054;-83
2021/12/14 04:11:28;;;;;;;222.32;127.93;;;3.40;1.00;;;;;;5027578;28;20513;-83
2021/12/14 04:13:57;;;;;;;216.68;125.65;;;3.50;1.00;;;;;;5038232;28;20052;-84
2021/12/14 04:16:50;;;;;;;209.82;117.45;;;3.50;1.00;;;;;;5038838;28;20080;-83
2021/12/14 04:19:22;;;;;;;202.88;120.07;;;3.50;1.00;;;;;;5032790;28;20083;-84
2021/12/14 04:21:56;;;;;;;203.25;117.18;;;3.50;1.00;;;;;;5019517;28;20054;-82
2021/12/14 04:24:30;;;;;;;208.85;123.00;;;3.40;1.00;;;;;;5037297;28;20057;-83
2021/12/14 04:27:03;;;;;;;199.88;116.75;;;3.40;1.00;;;;;;5037275;28;20050;-83
2021/12/14 04:29:32;;;;;;;182.20;108.97;;;3.40;1.00;;;;;;5034826;28;20037;-82
2021/12/14 04:32:04;;;;;;;186.57;113.03;;;3.40;1.00;;;;;;5030901;28;20061;-81
2021/12/14 04:34:33;;;;;;;187.82;111.38;;;3.40;1.00;;;;;;5030836;28;20101;-81
2021/12/14 04:37:03;;;;;;;194.73;110.95;;;3.40;1.00;;;;;;5024862;28;20136;-82
2021/12/14 04:39:40;;;;;;;189.18;110.88;;;3.40;99.90;;;;;;5016576;28;20073;-83
2021/12/14 04:53:40;;;;;;;173.18;100.20;;;3.30;99.90;;;;;;5017325;28;20034;-81
2021/12/14 04:56:16;;;;;;;185.52;108.20;;;3.20;1.00;;;;;;5031619;28;20053;-81
2021/12/14 04:58:49;;;;;;;178.82;107.70;;;3.20;1.00;;;;;;5019985;28;20030;-83
2021/12/14 05:01:18;;;;;;;169.27;102.63;;;3.20;1.00;;;;;;5019781;28;20424;-79
2021/12/14 05:03:51;;;;;;;171.88;100.57;;;3.20;1.00;;;;;;5027926;28;20421;-83
2021/12/14 05:06:22;;;;;;;177.65;105.10;;;3.20;1.00;;;;;;5023880;28;20467;-82
2021/12/14 05:11:58;;;;;;;188.05;108.45;;;3.20;1.00;;;;;;4967566;28;20043;-81
2021/12/14 05:14:27;;;;;;;203.52;116.50;;;3.30;1.00;;;;;;4954256;28;20406;-82
2021/12/14 05:16:56;;;;;;;205.02;120.68;;;3.30;1.00;;;;;;4956027;28;20077;-81
2021/12/14 05:19:25;;;;;;;202.38;116.68;;;3.30;1.00;;;;;;4956505;28;20115;-81
2021/12/14 05:21:54;;;;;;;206.85;117.90;;;3.20;1.00;;;;;;4964318;28;20089;-82
2021/12/14 05:24:24;;;;;;;215.05;122.03;;;3.30;1.00;;;;;;4956633;28;20138;-82
2021/12/14 05:27:00;;;;;;;223.30;129.98;;;3.30;1.00;;;;;;4975380;28;20046;-80
2021/12/14 05:29:31;;;;;;;277.85;147.82;;;3.30;1.00;;;;;;4946756;29;20074;-82
2021/12/14 05:32:04;;;;;;;280.05;145.77;;;3.40;1.00;;;;;;4956890;28;20058;-81
2021/12/14 05:34:32;;;;;;;313.00;160.98;;;3.40;1.00;;;;;;4961676;28;20071;-81
2021/12/14 05:37:06;;;;;;;315.00;162.15;;;3.30;1.00;;;;;;4979776;28;20028;-80
2021/12/14 05:39:47;;;;;;;317.17;161.02;;;3.40;1.00;;;;;;4938885;29;20058;-81
2021/12/14 05:45:19;;;;;;;313.23;158.90;;;3.40;1.00;;;;;;4944466;28;20520;-80
2021/12/14 05:47:54;;;;;;;353.52;198.23;;;3.50;1.00;;;;;;5012885;28;20049;-82
2021/12/14 05:50:31;;;;;;;347.33;193.70;;;3.40;1.00;;;;;;5014567;28;20114;-80
2021/12/14 05:53:00;;;;;;;345.42;198.80;;;3.30;1.00;;;;;;5016696;28;20133;-79
2021/12/14 05:55:31;;;;;;;372.00;209.00;;;3.30;69.70;;;;;;5025306;28;20109;-82
2021/12/14 05:58:03;;;;;;;351.35;194.32;;;3.30;99.90;;;;;;5032342;28;20049;-81
2021/12/14 06:00:34;;;;;;;374.95;221.00;;;3.30;99.90;;;;;;5033768;28;20072;-81
2021/12/14 06:03:09;;;;;;;356.05;199.68;;;3.30;99.90;;;;;;5030840;28;20062;-82
2021/12/14 06:05:36;;;;;;;343.58;192.07;;;3.40;99.90;;;;;;5018398;28;20068;-81
2021/12/14 06:08:04;;;;;;;361.48;205.95;;;3.40;86.20;;;;;;5016669;28;20073;-81
2021/12/14 06:10:35;;;;;;;301.17;169.15;;;3.40;99.80;;;;;;5011069;28;20061;-82
2021/12/14 06:13:05;;;;;;;363.60;209.40;;;3.50;99.90;;;;;;5010858;28;20062;-81
2021/12/14 06:15:33;;;;;;;406.65;239.13;;;3.50;1.00;;;;;;5018348;28;20034;-82
2021/12/14 06:18:24;;;;;;;540.08;303.00;;;3.50;1.00;;;;;;5030735;28;20501;-81
2021/12/14 06:21:18;;;;;;;483.55;271.45;;;3.50;1.00;;;;;;5026481;28;20046;-82
2021/12/14 06:23:46;;;;;;;400.90;211.20;;;3.40;1.00;;;;;;5017635;28;20046;-81
2021/12/14 06:26:34;;;;;;;362.88;193.35;;;3.30;1.00;;;;;;5016427;28;20046;-81
2021/12/14 06:29:08;;;;;;;351.05;182.95;;;3.30;1.00;;;;;;5017492;28;20378;-81
2021/12/14 06:31:37;;;;;;;340.95;173.00;;;3.20;1.00;;;;;;5024209;28;20041;-81
2021/12/14 06:34:24;;;;;;;363.35;181.60;;;3.30;99.90;;;;;;5037265;28;20046;-82
2021/12/14 06:37:30;;;;;;;415.23;202.30;;;3.30;99.90;;;;;;5040013;28;20072;-81
2021/12/14 06:40:03;;;;;;;380.85;195.98;;;3.30;99.90;;;;;;5035376;28;20046;-82
2021/12/14 06:42:33;;;;;;;327.65;168.80;;;3.30;1.00;;;;;;5037709;28;20132;-82
2021/12/14 06:45:10;;;;;;;303.42;152.75;;;3.30;99.90;;;;;;5025943;28;20077;-80
2021/12/14 06:47:38;;;;;;;317.02;157.35;;;3.30;99.90;;;;;;5024001;28;20053;-82
2021/12/14 06:50:10;;;;;;;320.30;154.63;;;3.30;99.90;;;;;;5016457;28;20140;-80
2021/12/14 06:52:38;;;;;;;375.42;175.77;;;3.30;99.90;;;;;;5016270;28;20042;-81
2021/12/14 06:55:39;;;;;;;380.45;179.50;;;3.30;99.90;;;;;;4993356;28;20076;-79
2021/12/14 06:58:31;;;;;;;315.92;148.10;;;3.40;21.10;;;;;;4997155;28;20136;-82
2021/12/14 07:01:09;;;;;;;306.45;142.57;;;3.30;99.90;;;;;;5000896;28;20454;-82
2021/12/14 07:03:43;;;;;;;362.00;173.20;;;3.40;90.30;;;;;;5000651;28;20505;-79
2021/12/14 07:06:21;;;;;;;364.70;179.98;;;3.50;12.90;;;;;;5013531;28;20161;-81
2021/12/14 07:08:49;;;;;;;326.55;161.85;;;3.40;1.00;;;;;;5005032;28;20066;-82
2021/12/14 07:11:20;;;;;;;333.05;157.20;;;3.50;49.40;;;;;;5017794;28;20416;-80
2021/12/14 07:13:49;;;;;;;323.63;151.95;;;3.50;1.00;;;;;;5016837;28;20113;-82
2021/12/14 07:16:24;;;;;;;286.08;136.65;;;3.60;35.40;;;;;;5025346;28;20136;-82
2021/12/14 07:18:54;;;;;;;268.50;124.72;;;3.60;1.00;;;;;;5029239;28;20053;-83
2021/12/14 07:21:44;;;;;;;279.48;131.85;;;3.60;1.00;;;;;;5023866;28;20073;-81
2021/12/14 07:24:34;;;;;;;279.40;127.72;;;3.70;1.00;;;;;;5023010;28;20061;-82
2021/12/14 07:27:25;;;;;;;277.85;129.95;;;3.80;6.50;;;;;;5017080;28;20092;-82
2021/12/14 07:29:55;;;;;;;274.17;130.52;;;3.90;1.00;;;;;;5018742;28;20169;-82
2021/12/14 07:32:43;;;;;;;292.70;144.20;;;4.00;1.00;;;;;;5019118;28;20050;-81
2021/12/14 07:35:32;;;;;;;292.25;140.73;;;4.10;99.90;;;;;;5015950;28;20048;-82
2021/12/14 07:38:17;;;;;;;275.13;132.82;;;4.20;99.90;;;;;;5015556;28;20494;-79
2021/12/14 07:40:49;;;;;;;273.38;130.70;;;4.20;99.90;;;;;;5025590;28;20053;-80
2021/12/14 07:43:20;;;;;;;271.13;131.13;;;4.10;19.90;;;;;;5017880;28;20091;-81
2021/12/14 07:45:51;;;;;;;243.52;121.95;;;4.10;99.30;;;;;;4998404;28;20050;-82
2021/12/14 07:48:22;;;;;;;261.98;128.05;;;4.10;99.90;;;;;;5010828;28;20582;-82
2021/12/14 07:50:51;;;;;;;248.30;124.60;;;4.20;99.90;;;;;;5031455;28;20104;-81
2021/12/14 07:53:33;;;;;;;236.65;119.55;;;4.20;99.90;;;;;;5018760;28;20098;-82
2021/12/14 07:56:01;;;;;;;251.10;125.95;;;4.30;28.10;;;;;;5018109;28;20042;-82
2021/12/14 07:58:35;;;;;;;212.10;106.30;;;4.30;1.00;;;;;;5020678;28;20045;-84
2021/12/14 08:01:02;;;;;;;275.10;133.00;;;4.40;1.00;;;;;;5027363;28;20073;-84
2021/12/14 08:03:33;;;;;;;333.83;148.45;;;4.40;1.00;;;;;;5022189;28;20042;-82
2021/12/14 08:06:04;;;;;;;393.40;169.18;;;4.40;1.00;;;;;;5003140;28;20042;-82
2021/12/14 08:08:41;;;;;;;225.70;105.97;;;4.40;1.00;;;;;;5001501;28;20072;-83
2021/12/14 08:13:54;;;;;;;200.48;99.25;;;4.40;1.00;;;;;;5009335;28;20502;-85
2021/12/14 08:16:23;;;;;;;216.93;107.85;;;4.50;1.00;;;;;;4998136;28;20042;-83
2021/12/14 08:18:52;;;;;;;206.48;104.35;;;4.60;1.00;;;;;;5008883;28;20109;-81
2021/12/14 08:21:21;;;;;;;191.63;98.15;;;4.60;1.00;;;;;;5017104;28;20077;-83
2021/12/14 08:23:54;;;;;;;165.00;82.97;;;4.70;1.00;;;;;;5010273;28;20034;-81
2021/12/14 08:26:24;;;;;;;160.52;80.68;;;4.70;99.90;;;;;;5026330;28;20112;-80
2021/12/14 08:28:55;;;;;;;139.98;68.43;;;4.80;99.90;;;;;;5018916;28;20457;-80
2021/12/14 08:31:26;;;;;;;154.80;76.47;;;4.90;99.90;;;;;;5027781;28;20152;-84
2021/12/14 08:33:57;;;;;;;162.45;80.57;;;5.00;99.90;;;;;;5021120;28;20080;-82
2021/12/14 08:36:25;;;;;;;173.88;85.85;;;5.00;99.90;;;;;;5033242;28;20045;-84
2021/12/14 08:39:06;;;;;;;154.98;79.90;;;5.00;99.90;;;;;;5054793;28;20030;-82
2021/12/14 08:41:34;;;;;;;155.90;77.70;;;5.00;99.90;;;;;;5031061;28;20149;-84
2021/12/14 08:44:09;;;;;;;141.93;69.88;;;4.90;99.90;;;;;;5020026;28;20057;-84
2021/12/14 08:46:37;;;;;;;160.45;75.57;;;4.80;99.90;;;;;;5038399;28;20101;-81
2021/12/14 08:49:09;;;;;;;158.15;77.95;;;4.90;99.90;;;;;;5037212;28;20100;-83
2021/12/14 08:51:40;;;;;;;155.27;74.47;;;4.90;99.90;;;;;;5028371;28;20045;-84
2021/12/14 08:54:10;;;;;;;145.15;73.80;;;5.00;99.90;;;;;;5029663;28;20037;-83
2021/12/14 08:56:41;;;;;;;148.75;74.22;;;5.00;99.90;;;;;;5028503;28;20100;-82
2021/12/14 08:59:09;;;;;;;150.75;76.85;;;5.10;99.90;;;;;;5035158;28;20156;-83
2021/12/14 09:01:40;;;;;;;164.70;80.05;;;5.30;94.50;;;;;;5038523;28;20045;-85
2021/12/14 09:04:12;;;;;;;151.30;74.20;;;5.40;1.00;;;;;;5034447;28;20092;-81
2021/12/14 09:06:42;;;;;;;151.52;75.40;;;5.40;1.00;;;;;;5026508;28;20630;-81
2021/12/14 09:09:13;;;;;;;134.90;68.75;;;5.40;1.00;;;;;;5028698;28;20048;-80
2021/12/14 09:11:44;;;;;;;116.78;59.83;;;5.50;1.00;;;;;;5039472;28;20121;-82
2021/12/14 09:14:14;;;;;;;127.00;64.15;;;5.60;1.00;;;;;;5036001;28;20048;-82
2021/12/14 09:16:45;;;;;;;127.32;66.78;;;5.60;1.00;;;;;;5043938;28;20125;-81
2021/12/14 09:19:19;;;;;;;123.80;62.60;;;5.80;1.00;;;;;;5036698;28;20069;-82
2021/12/14 09:21:49;;;;;;;111.18;57.60;;;5.90;1.00;;;;;;5036283;28;20037;-80
2021/12/14 09:24:21;;;;;;;93.13;48.90;;;5.80;1.00;;;;;;5035668;28;20049;-82
2021/12/14 09:26:52;;;;;;;99.05;53.55;;;5.80;1.00;;;;;;5020746;28;20465;-81
2021/12/14 09:29:25;;;;;;;93.07;51.70;;;5.90;1.00;;;;;;5025124;28;20045;-81
2021/12/14 09:31:56;;;;;;;111.55;58.35;;;6.10;1.00;;;;;;5025210;28;20052;-80
2021/12/14 09:34:27;;;;;;;117.78;64.30;;;6.30;1.00;;;;;;5025208;28;20068;-82
2021/12/14 09:36:55;;;;;;;120.07;63.83;;;6.30;1.00;;;;;;5017139;28;20056;-81
2021/12/14 09:39:27;;;;;;;129.23;67.75;;;6.20;1.00;;;;;;5026157;28;20507;-82
2021/12/14 09:41:55;;;;;;;125.03;68.28;;;6.10;1.00;;;;;;5015421;28;20049;-81
2021/12/14 09:44:26;;;;;;;122.88;67.68;;;5.90;1.00;;;;;;5021533;28;20486;-80
2021/12/14 09:46:57;;;;;;;125.75;66.47;;;5.90;1.00;;;;;;5027360;28;20116;-79
2021/12/14 09:49:27;;;;;;;119.30;68.10;;;5.80;1.00;;;;;;5037988;28;20096;-81
2021/12/14 09:51:57;;;;;;;129.77;72.32;;;5.70;1.00;;;;;;5038382;28;20057;-82
2021/12/14 09:54:29;;;;;;;126.20;69.57;;;5.60;1.00;;;;;;5041378;28;20040;-81
2021/12/14 09:57:00;;;;;;;104.38;59.05;;;5.60;1.00;;;;;;5040389;28;20053;-81
2021/12/14 09:59:28;;;;;;;104.40;55.95;;;5.70;1.00;;;;;;5042700;28;20061;-81
2021/12/14 10:01:58;;;;;;;102.88;57.33;;;5.80;1.00;;;;;;5050086;28;20051;-80
2021/12/14 10:04:30;;;;;;;96.35;54.72;;;5.90;1.00;;;;;;5050864;28;20063;-81
2021/12/14 10:06:59;;;;;;;97.32;56.53;;;6.10;1.00;;;;;;5043102;28;20054;-84
2021/12/14 10:09:31;;;;;;;97.57;54.33;;;6.10;1.00;;;;;;5040565;28;20101;-82
2021/12/14 10:12:16;;;;;;;96.60;54.40;;;6.30;1.00;;;;;;5041091;28;20042;-81
2021/12/14 10:14:47;;;;;;;101.25;56.92;;;6.40;1.00;;;;;;5024621;28;20042;-78
2021/12/14 10:17:16;;;;;;;99.07;56.53;;;6.50;1.00;;;;;;5042512;28;20493;-79
2021/12/14 10:19:47;;;;;;;100.22;56.03;;;6.50;1.00;;;;;;5029079;28;20065;-81
2021/12/14 10:22:21;;;;;;;88.15;51.75;;;6.30;1.00;;;;;;5049499;28;20133;-79
2021/12/14 10:24:50;;;;;;;85.00;47.67;;;6.30;1.00;;;;;;5048470;28;20064;-82
2021/12/14 10:27:21;;;;;;;81.30;48.05;;;6.20;1.00;;;;;;5044443;28;20041;-82
2021/12/14 10:29:49;;;;;;;84.10;48.20;;;6.00;1.00;;;;;;5046992;28;20067;-82
2021/12/14 10:32:19;;;;;;;80.47;46.03;;;5.80;1.00;;;;;;5049541;28;20049;-82
2021/12/14 10:34:50;;;;;;;79.78;45.20;;;5.80;1.00;;;;;;5042087;28;20038;-82
2021/12/14 10:37:23;;;;;;;73.15;43.38;;;5.90;1.00;;;;;;5040252;28;20069;-83
2021/12/14 10:45:22;;;;;;;83.20;49.05;;;6.40;1.00;;;;;;5026364;28;20049;-81
2021/12/14 10:47:50;;;;;;;90.60;51.78;;;6.60;1.00;;;;;;5044538;28;20122;-82
2021/12/14 10:50:22;;;;;;;85.38;52.45;;;6.60;1.00;;;;;;5047778;28;20072;-80
2021/12/14 10:52:50;;;;;;;88.95;50.88;;;6.80;1.00;;;;;;5049127;28;20045;-81
2021/12/14 10:55:21;;;;;;;86.68;49.53;;;6.80;1.00;;;;;;5048498;28;20065;-79
2021/12/14 10:57:49;;;;;;;85.05;47.05;;;6.80;1.00;;;;;;5055344;28;20049;-80
2021/12/14 11:00:29;;;;;;;86.18;48.00;;;6.70;99.90;;;;;;5057488;28;20040;-80
2021/12/14 11:03:00;;;;;;;82.40;45.40;;;6.80;99.90;;;;;;5055937;28;20084;-79
2021/12/14 11:05:31;;;;;;;81.13;46.78;;;6.80;99.90;;;;;;5059544;28;20036;-79
2021/12/14 11:07:59;;;;;;;80.07;45.65;;;6.90;99.90;;;;;;5058165;28;20048;-78
2021/12/14 11:10:30;;;;;;;83.38;47.33;;;6.40;99.90;;;;;;5050879;28;20042;-80
2021/12/14 11:13:05;;;;;;;81.45;47.60;;;6.50;1.00;;;;;;5048623;28;20058;-80
2021/12/14 11:15:36;;;;;;;82.47;48.22;;;6.40;1.00;;;;;;5044278;28;20037;-78
2021/12/14 11:18:11;;;;;;;79.95;47.00;;;6.30;1.00;;;;;;5022406;28;20057;-78
2021/12/14 11:20:47;;;;;;;83.97;46.55;;;6.10;1.00;;;;;;5038568;28;20030;-82
2021/12/14 11:23:18;;;;;;;91.10;51.55;;;6.00;1.00;;;;;;5030300;28;20050;-79
2021/12/14 11:25:53;;;;;;;105.97;58.15;;;6.10;1.00;;;;;;5028259;28;20113;-81
2021/12/14 11:28:23;;;;;;;111.47;59.20;;;6.20;1.00;;;;;;5040999;28;20144;-80
2021/12/14 11:31:00;;;;;;;106.65;58.75;;;6.20;1.00;;;;;;5038293;28;20152;-82
2021/12/14 11:33:30;;;;;;;113.25;61.60;;;6.10;1.00;;;;;;5045358;28;20105;-82
2021/12/14 11:36:10;;;;;;;106.25;60.60;;;6.00;1.00;;;;;;5045961;28;20079;-82
2021/12/14 11:38:42;;;;;;;98.68;56.20;;;6.10;1.00;;;;;;5049161;28;20129;-81
2021/12/14 11:41:30;;;;;;;102.78;57.47;;;6.00;1.00;;;;;;5044985;28;20069;-81
2021/12/14 11:44:02;;;;;;;104.10;57.60;;;5.80;1.00;;;;;;5045955;28;20049;-81
2021/12/14 11:46:45;;;;;;;101.25;56.83;;;5.70;1.00;;;;;;5048351;28;20045;-82
2021/12/14 11:49:13;;;;;;;111.00;60.33;;;5.50;1.00;;;;;;5056869;28;20050;-82
2021/12/14 11:51:44;;;;;;;109.68;60.50;;;5.40;1.00;;;;;;5056500;28;20045;-81
2021/12/14 11:54:12;;;;;;;114.47;62.35;;;5.50;1.00;;;;;;5056661;28;20064;-82
2021/12/14 11:56:39;;;;;;;112.45;61.50;;;5.60;1.00;;;;;;5057272;28;20076;-79
2021/12/14 11:59:08;;;;;;;110.07;58.53;;;5.70;1.00;;;;;;5056642;28;20044;-80
2021/12/14 12:01:38;;;;;;;121.40;65.15;;;5.80;1.00;;;;;;5058575;28;20063;-82
2021/12/14 12:04:09;;;;;;;104.30;58.70;;;6.00;1.00;;;;;;5051869;28;20061;-83
2021/12/14 12:06:47;;;;;;;103.78;59.50;;;6.20;1.00;;;;;;5025543;28;20100;-82
2021/12/14 12:09:28;;;;;;;107.43;60.55;;;6.30;1.00;;;;;;5032282;28;20076;-82
2021/12/14 12:11:59;;;;;;;90.93;51.20;;;6.30;1.00;;;;;;5032314;28;20511;-83
2021/12/14 12:14:46;;;;;;;91.85;53.25;;;6.50;1.00;;;;;;5023252;28;20074;-83
2021/12/14 12:17:21;;;;;;;96.88;54.95;;;6.70;1.00;;;;;;5029483;28;20046;-81
2021/12/14 12:20:00;;;;;;;89.28;52.47;;;6.70;1.00;;;;;;5022796;28;20058;-82
2021/12/14 12:22:32;;;;;;;95.32;55.45;;;6.70;1.00;;;;;;5027224;28;20130;-81
2021/12/14 12:25:02;;;;;;;101.10;57.50;;;6.60;1.00;;;;;;5027226;28;20042;-81
2021/12/14 12:27:41;;;;;;;102.53;60.67;;;6.40;1.00;;;;;;5032269;28;20041;-80
2021/12/14 12:30:32;;;;;;;105.35;60.47;;;6.40;1.00;;;;;;5027302;28;20042;-83
2021/12/14 12:33:07;;;;;;;111.45;63.25;;;6.30;1.00;;;;;;5022622;28;20042;-81
2021/12/14 12:35:38;;;;;;;106.32;60.78;;;6.30;1.00;;;;;;5023858;28;20405;-83
2021/12/14 12:38:28;;;;;;;95.25;57.28;;;6.30;1.00;;;;;;5024313;28;20500;-83
2021/12/14 12:41:01;;;;;;;103.53;58.13;;;6.30;1.00;;;;;;5022744;28;20056;-83
2021/12/14 12:43:33;;;;;;;102.57;58.33;;;6.30;1.00;;;;;;5021394;28;20046;-82
2021/12/14 12:46:12;;;;;;;85.47;50.78;;;6.30;1.00;;;;;;5020976;28;20058;-80
2021/12/14 12:48:42;;;;;;;90.22;51.45;;;6.30;1.00;;;;;;5022324;28;20049;-83
2021/12/14 12:51:10;;;;;;;89.68;50.50;;;6.30;1.00;;;;;;5020310;28;20501;-81
2021/12/14 12:53:38;;;;;;;94.10;53.28;;;6.30;1.00;;;;;;5019743;28;20141;-83
2021/12/14 12:56:12;;;;;;;84.28;47.92;;;6.30;1.00;;;;;;5020290;28;20069;-84
2021/12/14 12:58:45;;;;;;;86.13;47.03;;;6.40;1.00;;;;;;5023788;28;20069;-83
2021/12/14 13:01:13;;;;;;;106.60;60.20;;;6.40;1.00;;;;;;5023972;28;20151;-83
2021/12/14 13:03:43;;;;;;;98.28;57.58;;;6.40;1.00;;;;;;5041577;28;20042;-80
2021/12/14 13:06:15;;;;;;;101.13;58.42;;;6.50;1.00;;;;;;5037072;28;20475;-81
2021/12/14 13:08:44;;;;;;;104.85;58.03;;;6.50;1.00;;;;;;5023805;28;20060;-80
2021/12/14 13:11:16;;;;;;;102.20;58.80;;;6.50;1.00;;;;;;5024420;28;20046;-82
2021/12/14 13:13:46;;;;;;;109.25;65.40;;;6.70;99.90;;;;;;5026072;28;20061;-79
2021/12/14 13:16:16;;;;;;;117.25;69.18;;;6.70;99.90;;;;;;5034568;28;20041;-82
2021/12/14 13:18:50;;;;;;;112.60;67.03;;;6.60;99.90;;;;;;5030169;28;20053;-82
2021/12/14 13:21:24;;;;;;;106.75;61.75;;;6.70;99.90;;;;;;5025156;28;20509;-82
2021/12/14 13:24:00;;;;;;;111.10;62.67;;;6.70;99.90;;;;;;5020848;28;20060;-81
2021/12/14 13:26:37;;;;;;;108.22;61.22;;;6.60;99.90;;;;;;5018808;28;20096;-82
2021/12/14 13:29:15;;;;;;;111.43;58.47;;;6.50;99.90;;;;;;5020108;28;20046;-80